Time;durP1;ratioP1;P1;durP2;ratioP2;P2;SDS_P1;SDS_P2;PMS_P1;PMS_P2;Temp;Humidity;BMP_temperature;BMP_pressure;BME280_temperature;BME280_humidity;BME280_pressure;Samples;Min_cycle;Max_cycle;Signal;HPM_P1;HPM_P2
2023/03/15 17:49:53;;;;;;;;;;;;;;;;;;5114544;27;19957;-83
2023/03/15 17:52:19;;;;;;;;;;;;;;;;;;5109477;28;19959;-81
2023/03/15 17:54:44;;;;;;;;;;;;;;;;;;5096139;28;20387;-82
2023/03/15 17:57:09;;;;;;;;;;;;;;;;;;5091602;28;19912;-83
2023/03/15 17:59:35;;;;;;;;;;;;;;;;;;5096094;28;20003;-82
2023/03/15 18:02:00;;;;;;;;;;;;;;;;;;5103472;28;19957;-80
2023/03/15 18:04:25;;;;;;;;;;;;;;;;;;5095357;28;20273;-80
2023/03/15 18:06:51;;;;;;;;;;;;;;;;;;5102202;28;20116;-83
2023/03/15 18:09:17;;;;;;;;;;;;;;;;;;5093632;28;20381;-79
2023/03/15 18:11:42;;;;;;;;;;;;;;;;;;5094882;28;19917;-81
2023/03/15 18:14:07;;;;;;;;;;;;;;;;;;5091692;28;19920;-81
2023/03/15 18:16:33;;;;;;;;;;;;;;;;;;5091952;28;19916;-82
2023/03/15 18:18:58;;;;;;;;;;;;;;;;;;5089202;28;19981;-83
2023/03/15 18:21:23;;;;;;;;;;;;;;;;;;5098005;28;19917;-81
2023/03/15 18:23:48;;;;;;;;;;;;;;;;;;5094097;28;19999;-81
2023/03/15 18:26:13;;;;;;;;;;;;;;;;;;5087922;28;19912;-83
2023/03/15 18:28:39;;;;;;;;;;;;;;;;;;5090876;28;19916;-81
2023/03/15 18:31:04;;;;;;;;;;;;;;;;;;5099793;28;19966;-83
2023/03/15 18:33:30;;;;;;;;;;;;;;;;;;5088679;28;20376;-86
2023/03/15 18:35:55;;;;;;;;;;;;;;;;;;5089552;28;20007;-81
2023/03/15 18:38:20;;;;;;;;;;;;;;;;;;5087145;28;19970;-81
2023/03/15 18:40:45;;;;;;;;;;;;;;;;;;5087431;28;19916;-82
2023/03/15 18:43:14;;;;;;;;;;;;;;;;;;5090595;28;19951;-82
2023/03/15 18:45:39;;;;;;;;;;;;;;;;;;5096761;28;19964;-83
2023/03/15 18:48:04;;;;;;;;;;;;;;;;;;5096072;28;19920;-82
2023/03/15 18:50:32;;;;;;;;;;;;;;;;;;5089688;28;19912;-81
2023/03/15 18:52:57;;;;;;;;;;;;;;;;;;5091582;28;19923;-80
2023/03/15 18:55:23;;;;;;;;;;;;;;;;;;5096111;28;19912;-79
2023/03/15 18:57:48;;;;;;;;;;;;;;;;;;5097238;28;19919;-80
2023/03/15 19:00:13;;;;;;;;;;;;;;;;;;5081621;28;19917;-79
2023/03/15 19:02:39;;;;;;;;;;;;;;;;;;5079838;28;20293;-79
2023/03/15 19:05:04;;;;;;;;;;;;;;;;;;5074444;28;19920;-80
2023/03/15 19:07:29;;;;;;;;;;;;;;;;;;5075496;28;19920;-81
2023/03/15 19:09:54;;;;;;;;;;;;;;;;;;5075226;28;19921;-81
2023/03/15 19:12:19;;;;;;;;;;;;;;;;;;5076466;28;19913;-81
2023/03/15 19:14:45;;;;;;;;;;;;;;;;;;5073405;28;19928;-81
2023/03/15 19:17:10;;;;;;;;;;;;;;;;;;5076170;28;19916;-80
2023/03/15 19:19:35;;;;;;;;;;;;;;;;;;5077312;28;19954;-81
2023/03/15 19:22:00;;;;;;;;;;;;;;;;;;5080480;28;19924;-80
2023/03/15 19:24:26;;;;;;;;;;;;;;;;;;5079194;28;19969;-82
2023/03/15 19:26:51;;;;;;;;;;;;;;;;;;5081634;28;20353;-81
2023/03/15 19:29:16;;;;;;;;;;;;;;;;;;5081333;28;19916;-80
2023/03/15 19:31:41;;;;;;;;;;;;;;;;;;5082122;28;19966;-80
2023/03/15 19:34:07;;;;;;;;;;;;;;;;;;5085308;28;19909;-80
2023/03/15 19:36:32;;;;;;;;;;;;;;;;;;5076464;28;20358;-82
2023/03/15 19:38:57;;;;;;;;;;;;;;;;;;5075235;28;19908;-80
2023/03/15 19:41:22;;;;;;;;;;;;;;;;;;5076049;28;20338;-81
2023/03/15 19:43:47;;;;;;;;;;;;;;;;;;5072392;28;19942;-81
2023/03/15 19:46:14;;;;;;;;;;;;;;;;;;5074658;28;19920;-81
2023/03/15 19:48:39;;;;;;;;;;;;;;;;;;5087383;28;20367;-79
2023/03/15 19:51:04;;;;;;;;;;;;;;;;;;5085592;28;19913;-80
2023/03/15 19:53:29;;;;;;;;;;;;;;;;;;5078728;28;19920;-79
2023/03/15 19:55:54;;;;;;;;;;;;;;;;;;5074561;28;19916;-81
2023/03/15 19:58:20;;;;;;;;;;;;;;;;;;5085355;28;20261;-80
2023/03/15 20:00:45;;;;;;;;;;;;;;;;;;5078316;28;19919;-81
2023/03/15 20:03:11;;;;;;;;;;;;;;;;;;5080314;28;19916;-80
2023/03/15 20:05:37;;;;;;;;;;;;;;;;;;5083944;28;20163;-83
2023/03/15 20:08:02;;;;;;;;;;;;;;;;;;5082856;28;19927;-81
2023/03/15 20:10:27;;;;;;;;;;;;;;;;;;5073974;28;20019;-81
2023/03/15 20:12:57;;;;;;;;;;;;;;;;;;5076916;28;19973;-82
2023/03/15 20:15:24;;;;;;;;;;;;;;;;;;5079753;28;19951;-82
2023/03/15 20:17:49;;;;;;;;;;;;;;;;;;5074899;28;19916;-82
2023/03/15 20:20:14;;;;;;;;;;;;;;;;;;5077939;28;20011;-82
2023/03/15 20:22:39;;;;;;;;;;;;;;;;;;5074023;28;19924;-81
2023/03/15 20:25:04;;;;;;;;;;;;;;;;;;5073201;28;20399;-83
2023/03/15 20:27:31;;;;;;;;;;;;;;;;;;5076869;28;20391;-82
2023/03/15 20:29:57;;;;;;;;;;;;;;;;;;5084454;28;19951;-82
2023/03/15 20:32:22;;;;;;;;;;;;;;;;;;5072229;28;19916;-82
2023/03/15 20:34:47;;;;;;;;;;;;;;;;;;5071815;28;19961;-83
2023/03/15 20:37:12;;;;;;;;;;;;;;;;;;5074758;28;19955;-82
2023/03/15 20:39:37;;;;;;;;;;;;;;;;;;5077678;28;20395;-81
2023/03/15 20:42:02;;;;;;;;;;;;;;;;;;5073921;28;19916;-81
2023/03/15 20:44:27;;;;;;;;;;;;;;;;;;5072110;28;20022;-80
2023/03/15 20:46:55;;;;;;;;;;;;;;;;;;5078332;28;19967;-81
2023/03/15 20:49:20;;;;;;;;;;;;;;;;;;5070565;28;19921;-82
2023/03/15 20:51:45;;;;;;;;;;;;;;;;;;5074817;28;19920;-81
2023/03/15 20:54:10;;;;;;;;;;;;;;;;;;5075671;28;19944;-82
2023/03/15 20:56:36;;;;;;;;;;;;;;;;;;5075583;28;19916;-82
2023/03/15 20:59:01;;;;;;;;;;;;;;;;;;5075096;28;19967;-82
2023/03/15 21:01:26;;;;;;;;;;;;;;;;;;5076816;28;20318;-83
2023/03/15 21:03:54;;;;;;;;;;;;;;;;;;5084360;28;19912;-83
2023/03/15 21:06:19;;;;;;;;;;;;;;;;;;5083525;28;19912;-83
2023/03/15 21:08:45;;;;;;;;;;;;;;;;;;5072661;28;19932;-82
2023/03/15 21:11:10;;;;;;;;;;;;;;;;;;5076942;28;19919;-81
2023/03/15 21:13:35;;;;;;;;;;;;;;;;;;5074219;28;20238;-81
2023/03/15 21:16:03;;;;;;;;;;;;;;;;;;5075447;28;19984;-82
2023/03/15 21:18:28;;;;;;;;;;;;;;;;;;5074297;28;20368;-81
2023/03/15 21:20:53;;;;;;;;;;;;;;;;;;5075268;28;19930;-81
2023/03/15 21:23:18;;;;;;;;;;;;;;;;;;5079342;28;19912;-82
2023/03/15 21:25:43;;;;;;;;;;;;;;;;;;5079132;28;20441;-81
2023/03/15 21:28:08;;;;;;;;;;;;;;;;;;5082032;28;20296;-82
2023/03/15 21:30:33;;;;;;;;;;;;;;;;;;5074041;28;20433;-81
2023/03/15 21:32:59;;;;;;;;;;;;;;;;;;5084516;28;20404;-81
2023/03/15 21:35:25;;;;;;;;;;;;;;;;;;5080273;28;19919;-80
2023/03/15 21:37:50;;;;;;;;;;;;;;;;;;5080520;28;19947;-81
2023/03/15 21:40:15;;;;;;;;;;;;;;;;;;5072693;28;19920;-81
2023/03/15 21:42:41;;;;;;;;;;;;;;;;;;5071048;28;19997;-80
2023/03/15 21:45:07;;;;;;;;;;;;;;;;;;5075616;28;19912;-82
2023/03/15 21:47:32;;;;;;;;;;;;;;;;;;5082224;28;20322;-82
2023/03/15 21:49:57;;;;;;;;;;;;;;;;;;5085360;28;19913;-82
2023/03/15 21:52:25;;;;;;;;;;;;;;;;;;5069428;28;19919;-82
2023/03/15 21:54:50;;;;;;;;;;;;;;;;;;5080100;28;19993;-81
2023/03/15 21:57:15;;;;;;;;;;;;;;;;;;5074199;28;19962;-83
2023/03/15 21:59:40;;;;;;;;;;;;;;;;;;5071740;28;20389;-80
2023/03/15 22:02:06;;;;;;;;;;;;;;;;;;5075577;28;20010;-83
2023/03/15 22:04:32;;;;;;;;;;;;;;;;;;5074680;28;19920;-82
2023/03/15 22:06:57;;;;;;;;;;;;;;;;;;5076059;28;19919;-82
2023/03/15 22:09:22;;;;;;;;;;;;;;;;;;5078584;28;19927;-82
2023/03/15 22:11:48;;;;;;;;;;;;;;;;;;5071457;28;19916;-82
2023/03/15 22:14:13;;;;;;;;;;;;;;;;;;5074866;28;19927;-79
2023/03/15 22:16:38;;;;;;;;;;;;;;;;;;5081236;28;19912;-82
2023/03/15 22:19:03;;;;;;;;;;;;;;;;;;5078985;28;20007;-82
2023/03/15 22:21:28;;;;;;;;;;;;;;;;;;5078946;28;19939;-82
2023/03/15 22:23:53;;;;;;;;;;;;;;;;;;5070189;28;19926;-82
2023/03/15 22:26:19;;;;;;;;;;;;;;;;;;5085454;28;20019;-82
2023/03/15 22:28:44;;;;;;;;;;;;;;;;;;5082698;28;19977;-82
2023/03/15 22:31:09;;;;;;;;;;;;;;;;;;5077904;28;19923;-82
2023/03/15 22:33:35;;;;;;;;;;;;;;;;;;5078544;28;19912;-80
2023/03/15 22:36:02;;;;;;;;;;;;;;;;;;5074790;28;19921;-82
2023/03/15 22:38:27;;;;;;;;;;;;;;;;;;5076859;28;19991;-82
2023/03/15 22:40:52;;;;;;;;;;;;;;;;;;5087701;28;20364;-82
2023/03/15 22:43:18;;;;;;;;;;;;;;;;;;5079988;28;19916;-82
2023/03/15 22:45:43;;;;;;;;;;;;;;;;;;5081589;28;19916;-82
2023/03/15 22:48:09;;;;;;;;;;;;;;;;;;5097575;28;20154;-80
2023/03/15 22:50:34;;;;;;;;;;;;;;;;;;5092859;28;19935;-80
2023/03/15 22:52:59;;;;;;;;;;;;;;;;;;5082251;28;20283;-81
2023/03/15 22:55:24;;;;;;;;;;;;;;;;;;5080603;28;19951;-80
2023/03/15 22:57:49;;;;;;;;;;;;;;;;;;5078434;28;19921;-80
2023/03/15 23:00:15;;;;;;;;;;;;;;;;;;5083372;28;19938;-81
2023/03/15 23:02:40;;;;;;;;;;;;;;;;;;5079309;28;19917;-81
2023/03/15 23:05:05;;;;;;;;;;;;;;;;;;5080286;28;20244;-80
2023/03/15 23:07:30;;;;;;;;;;;;;;;;;;5084288;28;20265;-79
2023/03/15 23:09:55;;;;;;;;;;;;;;;;;;5084074;28;20400;-81
2023/03/15 23:12:20;;;;;;;;;;;;;;;;;;5075992;28;19916;-80
2023/03/15 23:14:48;;;;;;;;;;;;;;;;;;5085817;28;19913;-81
2023/03/15 23:17:13;;;;;;;;;;;;;;;;;;5106872;28;19916;-81
2023/03/15 23:19:39;;;;;;;;;;;;;;;;;;5093417;28;19919;-81
2023/03/15 23:22:04;;;;;;;;;;;;;;;;;;5089750;28;19919;-80
2023/03/15 23:24:29;;;;;;;;;;;;;;;;;;5080859;28;20453;-79
2023/03/15 23:26:57;;;;;;;;;;;;;;;;;;5082653;28;19912;-81
2023/03/15 23:29:22;;;;;;;;;;;;;;;;;;5091827;28;19915;-81
2023/03/15 23:31:48;;;;;;;;;;;;;;;;;;5095585;28;19919;-81
2023/03/15 23:34:13;;;;;;;;;;;;;;;;;;5084800;28;19967;-81
2023/03/15 23:36:38;;;;;;;;;;;;;;;;;;5082837;28;19923;-81
2023/03/15 23:39:04;;;;;;;;;;;;;;;;;;5089336;28;20294;-82
2023/03/15 23:41:29;;;;;;;;;;;;;;;;;;5084015;28;19920;-80
2023/03/15 23:43:54;;;;;;;;;;;;;;;;;;5075781;28;19920;-80
2023/03/15 23:46:22;;;;;;;;;;;;;;;;;;5080168;28;19923;-80
2023/03/15 23:48:47;;;;;;;;;;;;;;;;;;5088734;28;19920;-81
2023/03/15 23:51:12;;;;;;;;;;;;;;;;;;5077898;28;19913;-81
2023/03/15 23:53:37;;;;;;;;;;;;;;;;;;5076020;28;19966;-81
2023/03/15 23:56:02;;;;;;;;;;;;;;;;;;5074220;28;20248;-81
2023/03/15 23:58:27;;;;;;;;;;;;;;;;;;5077646;28;20392;-80
